Time;durP1;ratioP1;P1;durP2;ratioP2;P2;SDS_P1;SDS_P2;PMS_P1;PMS_P2;Temp;Humidity;BMP_temperature;BMP_pressure;BME280_temperature;BME280_humidity;BME280_pressure;Samples;Min_cycle;Max_cycle;Signal;HPM_P1;HPM_P2
2021/07/13 00:01:07;;;;;;;40.33;33.08;;;;;;;18.45;100.00;100954.53;3582850;40;20037;-61
2021/07/13 00:03:34;;;;;;;39.92;30.42;;;;;;;18.43;100.00;100960.13;3582403;40;20320;-61
2021/07/13 00:06:00;;;;;;;38.85;31.73;;;;;;;18.43;100.00;100946.50;3583113;40;20029;-60
2021/07/13 00:08:27;;;;;;;40.13;33.47;;;;;;;18.45;100.00;100955.38;3584478;40;20052;-61
2021/07/13 00:10:55;;;;;;;37.58;30.63;;;;;;;18.50;100.00;100961.09;3587240;40;20032;-62
2021/07/13 00:13:21;;;;;;;36.60;30.70;;;;;;;18.56;100.00;100964.97;3583368;40;20035;-61
2021/07/13 00:15:50;;;;;;;46.45;35.78;;;;;;;18.53;100.00;100962.59;3584481;40;20036;-61
2021/07/13 00:20:45;;;;;;;;;;;;;;;18.48;100.00;100970.50;3663495;22;20044;-61
2021/07/13 00:23:12;;;;;;;59.83;41.55;;;;;;;18.45;100.00;100971.72;3597874;39;19932;-62
2021/07/13 00:25:38;;;;;;;52.28;35.08;;;;;;;18.47;100.00;100979.72;3597266;39;20334;-61
2021/07/13 00:28:06;;;;;;;47.33;36.17;;;;;;;18.47;100.00;100991.44;3596732;39;20043;-62
2021/07/13 00:30:33;;;;;;;47.15;36.47;;;;;;;18.54;100.00;100986.94;3597650;39;20091;-61
2021/07/13 00:33:00;;;;;;;64.68;45.65;;;;;;;18.64;100.00;100997.59;3598373;39;20048;-62
2021/07/13 00:35:26;;;;;;;65.53;46.03;;;;;;;18.74;100.00;100992.72;3597091;39;20040;-62
2021/07/13 00:37:53;;;;;;;51.95;40.47;;;;;;;18.79;100.00;100994.88;3597467;39;20036;-62
2021/07/13 00:40:21;;;;;;;52.72;41.40;;;;;;;18.86;100.00;100998.59;3597532;39;20066;-62
2021/07/13 00:42:49;;;;;;;54.42;40.85;;;;;;;18.88;100.00;100985.59;3596817;39;20031;-62
2021/07/13 00:45:18;;;;;;;52.58;39.95;;;;;;;18.93;100.00;100984.19;3596761;39;20295;-62
2021/07/13 00:47:47;;;;;;;50.13;38.60;;;;;;;18.80;100.00;100980.22;3597992;39;20051;-62
2021/07/13 00:50:15;;;;;;;;;;;;;;;18.78;100.00;100974.09;3595797;39;20024;-62
2021/07/13 00:52:41;;;;;;;66.10;44.85;;;;;;;18.84;100.00;100973.34;3597377;39;20046;-61
2021/07/13 00:55:10;;;;;;;63.13;45.78;;;;;;;18.83;100.00;100966.22;3597405;39;20081;-62
2021/07/13 00:57:37;;;;;;;62.55;44.70;;;;;;;18.82;100.00;100977.31;3598429;39;20148;-62
2021/07/13 01:00:05;;;;;;;68.80;48.50;;;;;;;18.89;100.00;100973.66;3597125;39;20279;-61
2021/07/13 01:02:33;;;;;;;71.90;49.63;;;;;;;18.93;100.00;100978.75;3597613;39;20036;-62
2021/07/13 01:05:02;;;;;;;65.25;48.78;;;;;;;18.92;100.00;100977.91;3597658;39;20024;-62
2021/07/13 01:07:38;;;;;;;81.30;53.45;;;;;;;18.89;100.00;100978.28;3596837;39;20048;-61
2021/07/13 01:10:09;;;;;;;89.95;57.13;;;;;;;18.86;100.00;100979.50;3596466;39;20075;-61
2021/07/13 01:12:48;;;;;;;87.75;55.13;;;;;;;18.92;100.00;100983.38;3596483;39;20040;-62
2021/07/13 01:15:18;;;;;;;78.00;53.30;;;;;;;18.98;100.00;100987.22;3597109;39;20044;-62
2021/07/13 01:17:52;;;;;;;65.30;47.22;;;;;;;18.92;100.00;100988.81;3596880;39;20074;-61
2021/07/13 01:20:42;;;;;;;66.60;48.17;;;;;;;18.96;100.00;100994.72;3599007;39;20058;-60
2021/07/13 01:23:18;;;;;;;70.82;50.40;;;;;;;18.95;100.00;100996.63;3606918;39;20024;-61
2021/07/13 01:25:51;;;;;;;61.53;44.58;;;;;;;19.00;100.00;100998.78;3607111;39;20038;-62
2021/07/13 01:28:21;;;;;;;67.78;48.90;;;;;;;19.04;100.00;101000.94;3606309;39;20040;-61
2021/07/13 01:30:53;;;;;;;67.47;48.63;;;;;;;19.06;100.00;100989.84;3606233;39;20036;-62
2021/07/13 01:33:22;;;;;;;70.50;48.83;;;;;;;18.99;100.00;100994.34;3607933;39;20042;-61
2021/07/13 01:35:52;;;;;;;84.65;55.15;;;;;;;19.06;100.00;100993.41;3606619;39;20036;-60
2021/07/13 01:38:20;;;;;;;84.13;54.05;;;;;;;19.07;100.00;100991.53;3607371;39;20040;-63
2021/07/13 01:40:49;;;;;;;94.00;59.47;;;;;;;19.04;100.00;100984.56;3607066;39;20028;-61
2021/07/13 01:43:16;;;;;;;95.35;59.92;;;;;;;19.19;100.00;100979.09;3607531;39;20052;-62
2021/07/13 01:45:45;;;;;;;92.65;58.10;;;;;;;19.18;100.00;100971.09;3607028;39;20039;-61
2021/07/13 01:48:12;;;;;;;100.65;62.58;;;;;;;19.11;100.00;100960.13;3607757;39;20398;-61
2021/07/13 01:50:43;;;;;;;106.00;64.50;;;;;;;19.04;100.00;100948.28;3607089;39;20045;-61
2021/07/13 01:53:11;;;;;;;109.80;66.00;;;;;;;19.03;100.00;100946.56;3608036;39;20035;-61
2021/07/13 01:55:39;;;;;;;111.15;65.40;;;;;;;18.97;100.00;100958.25;3607135;39;20035;-61
2021/07/13 01:58:06;;;;;;;100.28;60.55;;;;;;;19.00;100.00;100953.25;3607299;39;20040;-61
2021/07/13 02:00:34;;;;;;;111.85;63.55;;;;;;;18.91;100.00;100946.22;3607385;39;20028;-61
2021/07/13 02:03:03;;;;;;;126.07;66.63;;;;;;;18.90;100.00;100942.63;3607315;39;20028;-61
2021/07/13 02:05:31;;;;;;;130.60;68.65;;;;;;;18.93;100.00;100946.00;3606641;39;20074;-61
2021/07/13 02:08:01;;;;;;;126.70;68.03;;;;;;;18.96;100.00;100948.34;3606676;39;20042;-61
2021/07/13 02:10:28;;;;;;;121.38;68.32;;;;;;;18.97;100.00;100950.06;3605723;39;20046;-60
2021/07/13 02:12:54;;;;;;;109.88;61.85;;;;;;;18.96;100.00;100945.63;3607313;39;20037;-61
2021/07/13 02:15:21;;;;;;;123.35;68.85;;;;;;;19.00;100.00;100946.94;3606975;39;20397;-61
2021/07/13 02:17:49;;;;;;;122.93;65.88;;;;;;;18.97;100.00;100941.88;3606430;39;20044;-61
2021/07/13 02:20:21;;;;;;;131.35;69.43;;;;;;;19.02;100.00;100944.88;3606170;39;20027;-61
2021/07/13 02:22:47;;;;;;;136.75;69.93;;;;;;;18.90;100.00;100941.78;3607230;39;20333;-62
2021/07/13 02:25:14;;;;;;;125.20;68.43;;;;;;;18.99;100.00;100951.56;3606674;39;20024;-61
2021/07/13 02:27:46;;;;;;;142.05;73.03;;;;;;;18.81;100.00;100940.16;3607409;39;20035;-62
2021/07/13 02:30:13;;;;;;;145.68;73.80;;;;;;;18.80;100.00;100947.50;3606516;39;20036;-61
2021/07/13 02:32:45;;;;;;;125.43;69.40;;;;;;;18.90;100.00;100952.69;3606533;39;20307;-61
2021/07/13 02:35:14;;;;;;;121.15;64.30;;;;;;;18.82;100.00;100959.06;3606599;39;20043;-61
2021/07/13 02:37:45;;;;;;;140.13;70.75;;;;;;;18.85;100.00;100955.94;3606696;39;20065;-61
2021/07/13 02:40:14;;;;;;;119.95;65.10;;;;;;;18.86;100.00;100957.69;3606168;39;20036;-60
2021/07/13 02:42:43;;;;;;;134.13;66.22;;;;;;;18.84;100.00;100947.97;3606608;39;20035;-62
2021/07/13 02:45:10;;;;;;;;;;;;;;;18.83;100.00;100955.31;3605937;39;20043;-62
2021/07/13 02:47:41;;;;;;;130.85;69.88;;;;;;;18.84;100.00;100946.06;3607644;39;19939;-62
2021/07/13 02:50:09;;;;;;;129.35;69.38;;;;;;;18.84;100.00;100943.34;3606175;39;20043;-62
2021/07/13 02:52:37;;;;;;;124.88;68.45;;;;;;;18.82;100.00;100945.41;3606275;39;20051;-61
2021/07/13 02:55:07;;;;;;;130.25;67.85;;;;;;;18.78;100.00;100943.25;3606204;39;20027;-62
2021/07/13 02:57:36;;;;;;;115.35;62.20;;;;;;;18.76;100.00;100940.72;3603961;39;20314;-62
2021/07/13 03:00:07;;;;;;;108.13;62.63;;;;;;;18.80;100.00;100935.72;3607284;39;20042;-62
2021/07/13 03:02:34;;;;;;;122.68;67.47;;;;;;;18.80;100.00;100930.28;3608681;39;20042;-62
2021/07/13 03:05:01;;;;;;;115.47;63.60;;;;;;;18.76;100.00;100938.00;3606515;39;20046;-61
2021/07/13 03:07:28;;;;;;;111.10;61.88;;;;;;;18.73;100.00;100935.66;3606878;39;20289;-61
2021/07/13 03:09:55;;;;;;;119.22;63.20;;;;;;;18.77;100.00;100931.53;3606985;39;20043;-62
2021/07/13 03:12:24;;;;;;;121.28;67.50;;;;;;;18.86;100.00;100935.88;3605712;39;20075;-62
2021/07/13 03:14:53;;;;;;;113.80;63.38;;;;;;;18.84;100.00;100932.44;3606627;39;20297;-62
2021/07/13 03:17:21;;;;;;;104.75;60.75;;;;;;;18.91;100.00;100929.84;3605751;39;20028;-61
2021/07/13 03:19:48;;;;;;;111.60;59.70;;;;;;;18.93;100.00;100925.03;3606298;39;20279;-62
2021/07/13 03:22:19;;;;;;;106.18;61.63;;;;;;;18.90;100.00;100931.72;3605266;39;20046;-62
2021/07/13 03:24:47;;;;;;;114.93;61.92;;;;;;;18.83;100.00;100932.63;3605366;39;20032;-61
2021/07/13 03:27:14;;;;;;;108.95;59.85;;;;;;;18.76;100.00;100934.41;3607069;39;20378;-61
2021/07/13 03:29:43;;;;;;;112.82;62.15;;;;;;;18.73;100.00;100938.38;3607241;39;20032;-62
2021/07/13 03:32:10;;;;;;;108.07;61.72;;;;;;;18.81;100.00;100931.97;3606215;39;20049;-62
2021/07/13 03:34:37;;;;;;;105.38;61.75;;;;;;;18.83;100.00;100930.75;3605543;39;20037;-62
2021/07/13 03:37:04;;;;;;;116.65;63.20;;;;;;;18.80;100.00;100941.19;3606777;39;20019;-62
2021/07/13 03:39:30;;;;;;;103.28;59.40;;;;;;;18.80;100.00;100931.16;3606495;39;20348;-61
2021/07/13 03:41:58;;;;;;;98.30;57.30;;;;;;;18.83;100.00;100941.66;3606710;39;20032;-61
2021/07/13 03:44:25;;;;;;;101.10;58.30;;;;;;;18.80;100.00;100936.59;3605426;39;20050;-61
2021/07/13 03:46:53;;;;;;;103.55;58.30;;;;;;;18.83;100.00;100941.66;3607074;39;20046;-62
2021/07/13 03:49:24;;;;;;;94.25;57.58;;;;;;;18.87;100.00;100937.56;3604775;39;20044;-62
2021/07/13 03:51:50;;;;;;;104.78;59.53;;;;;;;18.96;100.00;100942.91;3604525;39;20305;-62
2021/07/13 03:54:18;;;;;;;103.07;57.47;;;;;;;18.89;100.00;100940.94;3606167;39;20039;-62
2021/07/13 03:56:46;;;;;;;103.18;58.80;;;;;;;18.84;100.00;100948.78;3606044;39;20023;-63
2021/07/13 03:59:13;;;;;;;106.05;63.42;;;;;;;18.78;100.00;100940.53;3607980;39;20051;-62
2021/07/13 04:01:40;;;;;;;102.05;60.03;;;;;;;18.77;100.00;100936.97;3604600;39;20412;-62
2021/07/13 04:04:08;;;;;;;113.85;64.18;;;;;;;18.84;100.00;100945.22;3607110;39;20052;-59
2021/07/13 04:06:35;;;;;;;116.68;62.78;;;;;;;18.85;100.00;100944.22;3604438;39;20038;-61
2021/07/13 04:09:04;;;;;;;110.47;65.43;;;;;;;18.77;100.00;100936.97;3607715;39;20032;-63
2021/07/13 04:11:31;;;;;;;111.03;63.30;;;;;;;18.76;100.00;100940.72;3607796;39;20125;-60
2021/07/13 04:13:57;;;;;;;111.38;63.25;;;;;;;18.77;100.00;100936.97;3606988;39;20043;-62
2021/07/13 04:16:24;;;;;;;114.60;62.53;;;;;;;18.76;100.00;100946.19;3605896;39;20270;-62
2021/07/13 04:18:50;;;;;;;109.68;65.28;;;;;;;18.74;100.00;100953.69;3608132;39;20046;-62
2021/07/13 04:21:18;;;;;;;104.07;62.53;;;;;;;18.78;100.00;100954.16;3607337;39;20056;-62
2021/07/13 04:23:44;;;;;;;114.75;65.07;;;;;;;18.73;100.00;100954.75;3606266;39;20073;-63
2021/07/13 04:26:11;;;;;;;103.40;62.47;;;;;;;18.76;100.00;100970.72;3606547;39;20035;-61
2021/07/13 04:28:38;;;;;;;107.32;62.08;;;;;;;18.77;100.00;100961.50;3606563;39;20132;-63
2021/07/13 04:31:04;;;;;;;100.35;60.38;;;;;;;18.81;100.00;100960.09;3605830;39;20048;-62
2021/07/13 04:33:31;;;;;;;116.90;66.40;;;;;;;18.77;100.00;100966.09;3605927;39;20040;-62
2021/07/13 04:35:58;;;;;;;104.20;62.72;;;;;;;18.75;100.00;100974.47;3607969;39;20044;-61
2021/07/13 04:38:26;;;;;;;97.20;60.45;;;;;;;18.75;100.00;100966.28;3606055;39;20053;-62
2021/07/13 04:40:53;;;;;;;91.03;58.60;;;;;;;18.75;100.00;100960.84;3605358;39;20035;-63
2021/07/13 04:43:20;;;;;;;95.15;58.25;;;;;;;18.81;100.00;100962.81;3605156;39;20273;-62
2021/07/13 04:45:46;;;;;;;91.50;59.00;;;;;;;18.89;100.00;100968.22;3605869;39;20035;-62
2021/07/13 04:48:12;;;;;;;92.63;59.05;;;;;;;18.85;100.00;100966.03;3606214;39;20044;-62
2021/07/13 04:50:39;;;;;;;101.13;59.63;;;;;;;18.76;100.00;100962.53;3605700;39;20131;-63
2021/07/13 04:53:05;;;;;;;93.63;56.90;;;;;;;18.77;100.00;100961.50;3606145;39;20055;-63
2021/07/13 04:55:33;;;;;;;107.05;62.33;;;;;;;18.85;100.00;100964.13;3605361;39;20042;-63
2021/07/13 04:58:00;;;;;;;104.55;62.45;;;;;;;18.84;100.00;100970.59;3608448;39;20044;-62
2021/07/13 05:00:26;;;;;;;105.88;61.53;;;;;;;18.80;100.00;100977.50;3603925;39;20044;-62
2021/07/13 05:02:53;;;;;;;104.40;62.95;;;;;;;18.83;100.00;100968.06;3606905;39;20332;-62
2021/07/13 05:05:20;;;;;;;99.72;59.30;;;;;;;18.80;100.00;100972.03;3607176;39;20039;-62
2021/07/13 05:07:47;;;;;;;97.70;59.45;;;;;;;18.88;100.00;100971.97;3607491;39;20083;-62
2021/07/13 05:10:15;;;;;;;88.10;53.92;;;;;;;18.78;100.00;100981.44;3607147;39;20062;-62
2021/07/13 05:12:43;;;;;;;95.32;53.88;;;;;;;18.69;100.00;100994.31;3607451;39;20057;-62
2021/07/13 05:15:11;;;;;;;95.07;57.53;;;;;;;18.72;100.00;100991.22;3607278;39;20052;-62
2021/07/13 05:17:38;;;;;;;95.97;53.85;;;;;;;18.73;100.00;100988.28;3607399;39;20038;-63
2021/07/13 05:20:06;;;;;;;90.78;53.05;;;;;;;18.82;100.00;100993.66;3606658;39;20321;-63
2021/07/13 05:22:34;;;;;;;100.87;55.37;;;;;;;18.77;100.00;101001.56;3606531;39;20056;-61
2021/07/13 05:25:00;;;;;;;111.45;57.10;;;;;;;18.75;100.00;100993.56;3607566;39;20044;-62
2021/07/13 05:27:27;;;;;;;100.65;55.35;;;;;;;18.86;100.00;100984.97;3607401;39;20279;-62
2021/07/13 05:29:56;;;;;;;100.18;54.05;;;;;;;18.84;100.00;100981.53;3607327;39;20046;-63
2021/07/13 05:32:22;;;;;;;;;;;;;;;18.88;100.00;100980.16;3606857;39;20046;-62
2021/07/13 05:34:49;;;;;;;110.45;55.25;;;;;;;18.87;100.00;100978.47;3606644;39;20253;-62
2021/07/13 05:37:15;;;;;;;111.18;54.60;;;;;;;18.89;100.00;100970.09;3607755;39;20133;-63
2021/07/13 05:39:42;;;;;;;94.25;49.28;;;;;;;18.93;100.00;100981.47;3607213;39;20382;-63
2021/07/13 05:42:10;;;;;;;100.88;51.92;;;;;;;18.97;100.00;100982.78;3607295;39;20315;-63
2021/07/13 05:44:37;;;;;;;107.57;53.67;;;;;;;18.92;100.00;100969.72;3607274;39;20055;-62
2021/07/13 05:47:05;;;;;;;109.72;52.90;;;;;;;18.87;100.00;100975.75;3606023;39;20044;-63
2021/07/13 05:49:31;;;;;;;110.32;52.85;;;;;;;18.88;100.00;100974.69;3606502;39;20047;-62
2021/07/13 05:51:57;;;;;;;106.97;50.45;;;;;;;18.90;100.00;100969.91;3607873;39;20030;-63
2021/07/13 05:54:24;;;;;;;108.72;51.72;;;;;;;18.89;100.00;100976.41;3603941;39;20051;-63
2021/07/13 05:56:51;;;;;;;112.72;52.78;;;;;;;18.86;100.00;100974.03;3606371;39;20276;-62
2021/07/13 05:59:17;;;;;;;108.35;50.83;;;;;;;18.97;100.00;100985.53;3607678;39;20030;-64
2021/07/13 06:01:44;;;;;;;109.43;53.35;;;;;;;18.91;100.00;100982.50;3606318;39;20038;-62
2021/07/13 06:04:11;;;;;;;95.93;50.05;;;;;;;18.85;100.00;100987.84;3606396;39;20041;-62
2021/07/13 06:06:38;;;;;;;90.45;47.83;;;;;;;18.93;100.00;100986.94;3605647;39;20042;-64
2021/07/13 06:09:04;;;;;;;97.15;50.72;;;;;;;18.91;100.00;100985.22;3607308;39;20068;-63
2021/07/13 06:11:31;;;;;;;92.40;49.22;;;;;;;19.07;100.00;100983.34;3605598;39;20092;-63
2021/07/13 06:13:57;;;;;;;94.90;48.88;;;;;;;19.10;100.00;100980.25;3605268;39;20042;-63
2021/07/13 06:16:23;;;;;;;99.45;51.58;;;;;;;19.02;100.00;100985.78;3605841;39;20120;-63
2021/07/13 06:18:50;;;;;;;91.53;48.40;;;;;;;19.02;100.00;100991.25;3602526;39;20321;-62
2021/07/13 06:21:18;;;;;;;87.40;47.80;;;;;;;19.01;100.00;100993.13;3604978;39;20062;-63
2021/07/13 06:23:47;;;;;;;94.43;48.88;;;;;;;19.08;100.00;100991.34;3606118;39;20027;-63
2021/07/13 06:26:13;;;;;;;99.72;49.10;;;;;;;19.13;100.00;100998.13;3606151;39;20039;-63
2021/07/13 06:28:39;;;;;;;91.30;47.13;;;;;;;19.11;100.00;100992.00;3606228;39;20031;-63
2021/07/13 06:31:06;;;;;;;101.90;49.78;;;;;;;19.17;100.00;100993.94;3606654;39;20043;-63
2021/07/13 06:33:32;;;;;;;82.63;47.13;;;;;;;19.14;100.00;100997.94;3606467;39;20064;-63
2021/07/13 06:35:59;;;;;;;78.78;44.85;;;;;;;19.20;100.00;100993.59;3604693;39;20042;-63
2021/07/13 06:38:26;;;;;;;73.90;42.58;;;;;;;19.15;100.00;100994.16;3606394;39;20052;-62
2021/07/13 06:40:53;;;;;;;85.13;46.92;;;;;;;19.14;100.00;100997.06;3604586;39;20024;-63
2021/07/13 06:43:19;;;;;;;79.28;48.22;;;;;;;19.31;100.00;100997.72;3607238;39;20108;-63
2021/07/13 06:45:46;;;;;;;76.47;45.83;;;;;;;19.17;100.00;101005.72;3606842;39;20378;-64
2021/07/13 06:48:12;;;;;;;85.35;48.15;;;;;;;19.13;100.00;101007.13;3606577;39;20131;-63
2021/07/13 06:50:39;;;;;;;76.47;46.63;;;;;;;19.18;100.00;101010.13;3600246;39;20039;-63
2021/07/13 06:53:05;;;;;;;80.45;47.08;;;;;;;19.31;100.00;101008.63;3607615;39;20051;-63
2021/07/13 06:55:33;;;;;;;76.57;46.60;;;;;;;19.39;100.00;101014.84;3606687;39;20033;-63
2021/07/13 06:57:59;;;;;;;79.85;45.83;;;;;;;19.40;100.00;101011.09;3606556;39;20027;-63
2021/07/13 07:00:26;;;;;;;81.78;46.08;;;;;;;19.40;100.00;101019.28;3605080;39;20054;-64
2021/07/13 07:02:52;;;;;;;83.88;48.08;;;;;;;19.48;100.00;101023.78;3606704;39;20038;-63
2021/07/13 07:05:19;;;;;;;74.05;43.90;;;;;;;19.52;100.00;101019.63;3606300;39;20039;-63
2021/07/13 07:07:47;;;;;;;77.53;44.28;;;;;;;19.51;100.00;101022.53;3607045;39;20044;-64
2021/07/13 07:10:15;;;;;;;66.90;41.78;;;;;;;19.48;100.00;101015.56;3606796;39;20036;-64
2021/07/13 07:12:43;;;;;;;72.05;41.80;;;;;;;19.46;100.00;101016.78;3606075;39;20071;-64
2021/07/13 07:15:11;;;;;;;73.20;44.70;;;;;;;19.42;100.00;101021.81;3607184;39;20050;-63
2021/07/13 07:17:45;;;;;;;81.30;45.08;;;;;;;19.43;100.00;101021.63;3606387;39;20042;-64
2021/07/13 07:20:12;;;;;;;68.88;42.25;;;;;;;19.49;100.00;101032.78;3605706;39;20321;-63
2021/07/13 07:22:39;;;;;;;77.97;43.72;;;;;;;19.50;100.00;101024.41;3607005;39;20316;-65
2021/07/13 07:25:06;;;;;;;76.05;42.88;;;;;;;19.49;100.00;101024.59;3606628;39;20026;-63
2021/07/13 07:27:33;;;;;;;82.72;45.53;;;;;;;19.51;100.00;101025.28;3606336;39;20030;-64
2021/07/13 07:30:03;;;;;;;79.53;44.15;;;;;;;19.55;100.00;101021.97;3606955;39;20035;-64
2021/07/13 07:32:29;;;;;;;84.05;46.00;;;;;;;19.39;100.00;101025.75;3605674;39;20056;-63
2021/07/13 07:34:56;;;;;;;83.63;46.20;;;;;;;19.35;100.00;101031.78;3605425;39;20351;-63
2021/07/13 07:37:22;;;;;;;82.38;44.08;;;;;;;19.44;100.00;101025.19;3605345;39;20031;-64
2021/07/13 07:39:49;;;;;;;88.28;45.58;;;;;;;19.53;100.00;101029.47;3606184;39;20020;-64
2021/07/13 07:42:15;;;;;;;83.20;44.53;;;;;;;19.36;100.00;101036.19;3606266;39;20031;-64
2021/07/13 07:44:41;;;;;;;83.45;46.08;;;;;;;19.41;100.00;101033.75;3607263;39;20035;-63
2021/07/13 07:47:09;;;;;;;78.72;42.25;;;;;;;19.56;100.00;101029.09;3606318;39;20447;-63
2021/07/13 07:49:36;;;;;;;75.20;41.78;;;;;;;19.53;100.00;101034.94;3603391;39;20485;-64
2021/07/13 07:52:03;;;;;;;71.28;41.92;;;;;;;19.54;100.00;101025.72;3606921;39;20385;-64
2021/07/13 07:54:30;;;;;;;81.18;43.72;;;;;;;19.61;100.00;101032.13;3606404;39;20040;-63
2021/07/13 07:56:56;;;;;;;80.57;42.85;;;;;;;19.56;100.00;101036.44;3608041;39;20031;-63
2021/07/13 07:59:23;;;;;;;74.03;42.25;;;;;;;19.50;100.00;101029.03;3607610;39;20273;-64
2021/07/13 08:01:49;;;;;;;79.18;42.80;;;;;;;19.63;100.00;101031.09;3606490;39;20679;-64
2021/07/13 08:04:17;;;;;;;71.78;41.35;;;;;;;19.64;100.00;101030.03;3605114;39;20063;-63
2021/07/13 08:06:43;;;;;;;74.03;42.88;;;;;;;19.59;100.00;101025.16;3603994;39;20417;-64
2021/07/13 08:09:10;;;;;;;70.25;41.67;;;;;;;19.63;100.00;101028.34;3606022;39;20043;-63
2021/07/13 08:11:37;;;;;;;70.85;42.35;;;;;;;19.67;100.00;101026.91;3606498;39;20032;-64
2021/07/13 08:14:04;;;;;;;70.43;40.42;;;;;;;19.65;100.00;101024.38;3606308;39;20044;-64
2021/07/13 08:16:31;;;;;;;67.18;40.72;;;;;;;19.70;100.00;101026.53;3605876;39;20031;-64
2021/07/13 08:18:57;;;;;;;67.47;40.72;;;;;;;19.69;100.00;101030.31;3606566;39;20032;-64
2021/07/13 08:21:25;;;;;;;66.38;39.28;;;;;;;19.80;100.00;101018.91;3607228;39;20059;-64
2021/07/13 08:23:52;;;;;;;67.57;40.05;;;;;;;19.76;100.00;101023.88;3607876;39;20040;-63
2021/07/13 08:26:18;;;;;;;60.95;38.65;;;;;;;19.78;100.00;101026.44;3606937;39;20397;-64
2021/07/13 08:28:44;;;;;;;68.68;41.05;;;;;;;19.74;100.00;101028.69;3608323;39;20047;-64
2021/07/13 08:31:11;;;;;;;66.18;40.63;;;;;;;19.79;100.00;101028.16;3605819;39;20383;-64
2021/07/13 08:33:37;;;;;;;67.35;41.35;;;;;;;19.87;100.00;101036.22;3606320;39;20382;-63
2021/07/13 08:36:04;;;;;;;66.82;40.72;;;;;;;19.90;100.00;101030.34;3606490;39;20626;-63
2021/07/13 08:38:32;;;;;;;65.07;41.78;;;;;;;20.07;100.00;101041.06;3607608;39;20044;-63
2021/07/13 08:40:59;;;;;;;68.53;41.30;;;;;;;20.00;100.00;101023.75;3606832;39;20478;-63
2021/07/13 08:43:27;;;;;;;65.38;40.63;;;;;;;19.91;100.00;101026.59;3604868;39;20056;-64
2021/07/13 08:45:54;;;;;;;67.63;40.03;;;;;;;20.01;100.00;101019.94;3607319;39;20080;-63
2021/07/13 08:48:23;;;;;;;68.07;41.33;;;;;;;20.01;100.00;101019.94;3606284;39;20043;-64
2021/07/13 08:50:53;;;;;;;66.03;39.83;;;;;;;20.04;100.00;101031.34;3607107;39;20037;-64
2021/07/13 08:53:20;;;;;;;69.72;40.85;;;;;;;20.16;100.00;101026.22;3606935;39;20403;-65
2021/07/13 08:55:48;;;;;;;70.38;41.50;;;;;;;20.13;100.00;101024.72;3606289;39;20068;-64
2021/07/13 08:58:15;;;;;;;64.40;38.90;;;;;;;20.39;100.00;101016.94;3607465;39;20384;-65
2021/07/13 09:00:42;;;;;;;64.25;37.03;;;;;;;20.44;100.00;101019.94;3606793;39;20285;-64
2021/07/13 09:03:11;;;;;;;63.78;39.08;;;;;;;20.58;100.00;101015.41;3605997;39;20141;-65
2021/07/13 09:05:43;;;;;;;71.15;40.25;;;;;;;20.63;100.00;101019.25;3606955;39;20034;-65
2021/07/13 09:08:18;;;;;;;63.60;38.55;;;;;;;20.78;100.00;101021.09;3606517;39;20404;-64
2021/07/13 09:11:01;;;;;;;62.75;39.00;;;;;;;20.76;100.00;101025.88;3607909;39;20032;-64
2021/07/13 09:13:30;;;;;;;66.78;39.00;;;;;;;20.85;100.00;101016.50;3607824;39;20042;-65
2021/07/13 09:15:57;;;;;;;65.78;38.47;;;;;;;20.71;100.00;101020.19;3627228;22;20056;-65
2021/07/13 09:18:31;;;;;;;55.25;36.40;;;;;;;20.52;100.00;101027.16;3605821;39;20132;-64
2021/07/13 09:21:10;;;;;;;60.95;37.85;;;;;;;20.87;100.00;101028.09;3605661;39;20071;-64
2021/07/13 09:23:37;;;;;;;;;;;;;;;20.81;100.00;101026.16;3605094;39;20113;-65
2021/07/13 09:26:04;;;;;;;58.45;36.42;;;;;;;20.71;100.00;101029.22;3604844;39;20012;-65
2021/07/13 09:28:31;;;;;;;56.80;36.20;;;;;;;20.77;100.00;101030.31;3604333;39;20024;-64
2021/07/13 09:31:00;;;;;;;60.45;38.42;;;;;;;20.83;100.00;101041.31;3604904;39;20038;-64
2021/07/13 09:33:27;;;;;;;53.22;34.50;;;;;;;20.62;100.00;101033.97;3605158;39;20040;-64
2021/07/13 09:36:02;;;;;;;49.35;34.38;;;;;;;20.63;100.00;101029.38;3604458;39;20084;-64
2021/07/13 09:38:30;;;;;;;55.28;33.97;;;;;;;20.53;100.00;101040.63;3606255;39;20051;-64
2021/07/13 09:41:02;;;;;;;54.28;34.40;;;;;;;20.57;100.00;101039.19;3606650;39;20068;-65
2021/07/13 09:43:44;;;;;;;50.70;34.42;;;;;;;20.54;100.00;101036.88;3605181;39;20039;-64
2021/07/13 09:46:32;;;;;;;53.90;35.55;;;;;;;20.74;100.00;101026.09;3602489;39;20033;-64
2021/07/13 09:49:15;;;;;;;57.47;36.70;;;;;;;20.87;100.00;101036.28;3604905;39;20044;-64
2021/07/13 09:51:44;;;;;;;53.45;35.92;;;;;;;20.96;100.00;101026.88;3603618;39;20430;-64
2021/07/13 09:54:29;;;;;;;52.90;35.70;;;;;;;21.05;100.00;101032.19;3605845;39;20055;-64
2021/07/13 09:56:55;;;;;;;51.80;35.60;;;;;;;21.00;100.00;101021.84;3602918;39;20310;-64
2021/07/13 09:59:23;;;;;;;56.38;36.92;;;;;;;21.08;100.00;101031.78;3606434;39;20027;-64
2021/07/13 10:01:51;;;;;;;51.90;36.07;;;;;;;20.93;100.00;101029.19;3606683;39;20051;-65
2021/07/13 10:04:17;;;;;;;55.00;37.80;;;;;;;20.99;100.00;101034.72;3606407;39;20117;-64
2021/07/13 10:06:45;;;;;;;53.92;37.53;;;;;;;20.79;100.00;101033.72;3603583;39;20034;-64
2021/07/13 10:09:12;;;;;;;59.15;38.97;;;;;;;20.64;100.00;101039.25;3605515;39;20048;-64
2021/07/13 10:11:39;;;;;;;59.00;39.80;;;;;;;20.54;100.00;101047.81;3606634;39;20301;-64
2021/07/13 10:14:07;;;;;;;59.70;40.50;;;;;;;20.33;100.00;101045.91;3606480;39;20374;-64
2021/07/13 10:16:35;;;;;;;61.75;42.47;;;;;;;20.42;100.00;101054.81;3605593;39;20040;-64
2021/07/13 10:19:02;;;;;;;56.15;38.22;;;;;;;20.57;100.00;101050.13;3607621;39;20048;-64
2021/07/13 10:21:29;;;;;;;57.25;39.53;;;;;;;20.61;100.00;101051.44;3605858;39;20060;-64
2021/07/13 10:23:57;;;;;;;59.33;40.22;;;;;;;20.59;100.00;101045.31;3605663;39;20067;-64
2021/07/13 10:26:44;;;;;;;57.78;38.90;;;;;;;20.48;100.00;101046.69;3605284;39;20070;-64
2021/07/13 10:29:43;;;;;;;58.92;39.72;;;;;;;20.51;100.00;101048.19;3605129;39;20263;-64
2021/07/13 10:32:32;;;;;;;57.03;36.92;;;;;;;20.58;100.00;101049.09;3605582;39;20136;-63
2021/07/13 10:35:02;;;;;;;54.92;38.60;;;;;;;20.73;100.00;101050.91;3604784;39;20394;-63
2021/07/13 10:37:31;;;;;;;53.38;39.13;;;;;;;20.78;100.00;101041.06;3604673;39;20027;-65
2021/07/13 10:39:59;;;;;;;;;;;;;;;20.76;100.00;101050.50;3606561;39;20529;-64
2021/07/13 10:42:59;;;;;;;54.70;39.13;;;;;;;20.85;100.00;101053.94;3603618;39;20327;-63
2021/07/13 10:45:29;;;;;;;52.30;37.85;;;;;;;20.88;100.00;101043.47;3602500;39;20031;-62
2021/07/13 10:48:00;;;;;;;54.95;38.10;;;;;;;20.85;100.00;101049.34;3606329;39;20058;-64
2021/07/13 10:50:34;;;;;;;54.95;39.00;;;;;;;21.03;100.00;101056.19;3604944;39;20122;-63
2021/07/13 10:53:02;;;;;;;50.58;35.92;;;;;;;21.00;100.00;101044.59;3605998;39;20046;-63
2021/07/13 10:55:46;;;;;;;52.10;36.72;;;;;;;21.08;100.00;101046.34;3606518;39;20065;-64
2021/07/13 10:58:37;;;;;;;54.22;37.45;;;;;;;21.07;100.00;101052.84;3603123;39;20043;-62
2021/07/13 11:01:07;;;;;;;47.28;36.03;;;;;;;21.29;100.00;101044.53;3602241;39;20039;-64
2021/07/13 11:03:59;;;;;;;49.38;35.08;;;;;;;21.28;100.00;101049.16;3605634;39;20039;-64
2021/07/13 11:06:53;;;;;;;50.42;36.03;;;;;;;21.28;100.00;101060.13;3601145;39;20074;-63
2021/07/13 11:09:36;;;;;;;48.78;35.75;;;;;;;21.30;100.00;101058.03;3600217;39;20035;-63
2021/07/13 11:12:16;;;;;;;45.92;34.58;;;;;;;20.87;100.00;101060.91;3602591;39;20051;-63